Kezdőlap
METAR-TAF:

METAR-TAF

Repülőterek :

Hill City Municipal Airport

Hill City, Kansas, Amerikai Egyesült Államok

földrajzi szélesség: 39-22-29N, földrajzi hosszúság: 099-49-47W, magasság: 678 m

Jelenlegi meteorológiai megfigyelések

A jelentés 57 perccel ezelõtt készült, 20:53 UTC
Észak-északnyugati szél 10 kt széllökések: 20 kt
Hőmérséklet 27°C
Páratartalom 37%
Légköri nyomás 1008 hPa
Látótávolság: 16.1 km
Derült ég

METAR: KHLC 262053Z AUTO 34010G20KT 10SM CLR 27/11 A2976 RMK AO2 SLP061 T02670106 53003

Idő: 16:50 (21:50 UTC)


TAF: hiányzik

Meteorológiai megfigyelések és előrejelzések több, mint 4000 repülőtéren (METAR és TAF jelentéseket).

A térképen piros és sárga pontok jelzik az elérhető meteorológiai állomásokat.

Mozgassa az egeret a pont fölött, hogy megjelenjen az állomás neve.

Azután kattintson az időjárási megfigyelések és előrejelzések megtekintéséhez.

A térkép megváltoztatása: kattintson a fekete keresztel jelölt zöld gombra ráközelítéshez, a vonallal jelölt zöld gombra távolításhoz, vagy a zöld nyilakra a szomszédos térképek eléréséhez.


METAR-TAF: